createdAt,value
2022-12-05T00:00:55.710Z,77.63
2022-12-05T00:06:17.352Z,77.54
2022-12-05T00:11:39.043Z,78.14
2022-12-05T00:16:59.989Z,77.58
2022-12-05T00:22:20.744Z,77.37
2022-12-05T00:27:41.626Z,77.84
2022-12-05T00:33:02.491Z,77.84
2022-12-05T00:38:23.338Z,77.60
2022-12-05T00:43:44.725Z,78.04
2022-12-05T00:49:06.579Z,77.91
2022-12-05T00:54:27.247Z,78.04
2022-12-05T00:59:47.908Z,77.58
2022-12-05T01:05:08.729Z,78.39
2022-12-05T01:10:29.290Z,78.33
2022-12-05T01:15:50.546Z,77.89
2022-12-05T01:21:11.589Z,78.36
2022-12-05T01:26:32.115Z,78.05
2022-12-05T01:31:53.444Z,78.00
2022-12-05T01:37:14.200Z,78.08
2022-12-05T01:42:34.999Z,77.92
2022-12-05T01:47:55.667Z,78.15
2022-12-05T01:53:17.672Z,77.77
2022-12-05T01:58:40.232Z,78.27
2022-12-05T02:04:01.127Z,77.83
2022-12-05T02:09:22.537Z,77.96
2022-12-05T02:15:01.894Z,78.37
2022-12-05T02:20:31.656Z,78.25
2022-12-05T02:26:10.708Z,78.07
2022-12-05T02:31:31.496Z,78.00
2022-12-05T02:36:52.251Z,78.45
2022-12-05T02:42:22.497Z,78.57
2022-12-05T02:47:51.171Z,77.81
2022-12-05T02:53:14.445Z,78.16
2022-12-05T02:58:39.109Z,77.84
2022-12-05T03:04:02.162Z,78.32
2022-12-05T03:09:29.730Z,78.16
2022-12-05T03:14:54.572Z,78.55
2022-12-05T03:20:25.317Z,78.37
2022-12-05T03:25:57.665Z,78.10
2022-12-05T03:31:27.778Z,78.25
2022-12-05T03:36:50.209Z,78.32
2022-12-05T03:42:17.113Z,78.42
2022-12-05T03:47:57.681Z,78.41
2022-12-05T03:53:24.623Z,78.29
2022-12-05T03:58:54.186Z,78.12
2022-12-05T04:04:17.693Z,77.84
2022-12-05T04:09:45.048Z,77.77
2022-12-05T04:15:08.501Z,78.37
2022-12-05T04:20:47.596Z,77.98
2022-12-05T04:26:11.150Z,78.43
2022-12-05T04:31:34.168Z,78.02
2022-12-05T04:37:15.060Z,78.64
2022-12-05T04:42:37.112Z,78.85
2022-12-05T04:48:01.361Z,78.44
2022-12-05T04:53:23.646Z,78.61
2022-12-05T04:58:44.503Z,78.14
2022-12-05T05:04:13.900Z,78.26
2022-12-05T05:09:35.031Z,78.39
2022-12-05T05:14:55.430Z,78.28
2022-12-05T05:20:25.251Z,78.68
2022-12-05T05:25:45.948Z,77.94
2022-12-05T05:31:07.529Z,78.41
2022-12-05T05:36:28.236Z,77.86
2022-12-05T05:41:49.048Z,77.99
2022-12-05T05:47:09.947Z,78.21
2022-12-05T05:52:32.356Z,78.24
2022-12-05T05:57:52.904Z,78.38
2022-12-05T06:03:13.894Z,78.08
2022-12-05T06:08:36.138Z,78.40
2022-12-05T06:13:58.219Z,78.42
2022-12-05T06:19:18.771Z,77.77
2022-12-05T06:24:39.687Z,77.40
2022-12-05T06:30:00.967Z,77.84
2022-12-05T06:35:21.724Z,78.10
2022-12-05T06:40:42.982Z,78.00
2022-12-05T06:46:07.260Z,77.81
2022-12-05T06:51:27.862Z,77.95
2022-12-05T06:56:48.524Z,78.07
2022-12-05T07:02:11.501Z,77.42
2022-12-05T07:07:32.104Z,77.92
2022-12-05T07:12:52.744Z,77.99
2022-12-05T07:18:13.764Z,78.25
2022-12-05T07:23:34.376Z,78.15
2022-12-05T07:28:55.883Z,77.75
2022-12-05T07:34:16.599Z,78.42
2022-12-05T07:39:37.368Z,78.75
2022-12-05T07:44:58.294Z,78.43
2022-12-05T07:50:19.247Z,78.24
2022-12-05T07:55:40.023Z,77.73
2022-12-05T08:01:08.278Z,77.37
2022-12-05T08:06:30.353Z,77.09
2022-12-05T08:11:52.840Z,76.68
2022-12-05T08:17:13.613Z,77.45
2022-12-05T08:22:34.411Z,77.70
2022-12-05T08:27:55.172Z,77.64
2022-12-05T08:33:15.872Z,77.59
2022-12-05T08:38:36.987Z,77.20
2022-12-05T08:43:58.668Z,77.30
2022-12-05T08:49:19.386Z,77.82
2022-12-05T08:54:40.180Z,78.32
2022-12-05T09:00:00.631Z,78.02
2022-12-05T09:05:28.907Z,78.14
2022-12-05T09:10:50.156Z,77.69
2022-12-05T09:16:12.478Z,77.85
2022-12-05T09:21:33.385Z,78.02
2022-12-05T09:26:54.158Z,77.43
2022-12-05T09:32:14.868Z,77.66
2022-12-05T09:37:40.112Z,77.50
2022-12-05T09:43:19.299Z,77.66
2022-12-05T09:48:41.004Z,77.41
2022-12-05T09:54:02.968Z,77.66
2022-12-05T09:59:23.579Z,78.06
2022-12-05T10:05:00.321Z,77.86
2022-12-05T10:10:21.697Z,78.17
2022-12-05T10:15:56.822Z,78.34
2022-12-05T10:21:30.019Z,77.77
2022-12-05T10:26:59.011Z,81.99
2022-12-05T10:32:28.102Z,79.09
2022-12-05T10:37:50.869Z,77.99
2022-12-05T10:43:13.804Z,77.77
2022-12-05T10:48:36.692Z,77.76
2022-12-05T10:53:57.604Z,78.03
2022-12-05T10:59:25.754Z,77.53
2022-12-05T11:04:46.620Z,77.60
2022-12-05T11:10:28.484Z,78.06
2022-12-05T11:15:55.174Z,77.51
2022-12-05T11:21:19.550Z,77.64
2022-12-05T11:26:40.105Z,77.18
2022-12-05T11:32:01.237Z,76.96
2022-12-05T11:37:26.749Z,77.05
2022-12-05T11:43:07.708Z,77.15
2022-12-05T11:48:40.049Z,77.46
2022-12-05T11:54:00.769Z,76.93
2022-12-05T11:59:27.864Z,77.64
2022-12-05T12:04:55.974Z,77.26
2022-12-05T12:10:36.115Z,77.23
2022-12-05T12:16:10.674Z,76.78
2022-12-05T12:21:38.415Z,76.63
2022-12-05T12:27:25.895Z,76.99
2022-12-05T12:32:46.351Z,77.15
2022-12-05T12:38:06.865Z,76.82
2022-12-05T12:43:53.234Z,76.83
2022-12-05T12:49:40.047Z,76.48
2022-12-05T12:55:06.919Z,76.43
2022-12-05T13:00:37.048Z,77.18
2022-12-05T13:06:13.217Z,76.79
2022-12-05T13:11:37.027Z,76.51
2022-12-05T13:16:58.643Z,76.40
2022-12-05T13:22:21.038Z,76.40
2022-12-05T13:27:53.428Z,76.19
2022-12-05T13:33:25.621Z,76.34
2022-12-05T13:39:05.382Z,76.04
2022-12-05T13:44:29.224Z,76.41
2022-12-05T13:49:52.943Z,75.92
2022-12-05T13:55:36.294Z,76.34
2022-12-05T14:01:17.400Z,76.25
2022-12-05T14:06:38.423Z,76.10
2022-12-05T14:12:11.362Z,76.15
2022-12-05T14:17:44.950Z,76.58
2022-12-05T14:23:09.103Z,76.43
2022-12-05T14:28:30.046Z,76.14
2022-12-05T14:34:15.245Z,76.73
2022-12-05T14:39:39.167Z,76.94
2022-12-05T14:45:01.897Z,76.62
2022-12-05T14:50:42.496Z,76.69
2022-12-05T14:56:06.693Z,76.45
2022-12-05T15:01:30.097Z,75.78
2022-12-05T15:06:53.516Z,82.79
2022-12-05T15:12:23.504Z,79.24
2022-12-05T15:17:50.515Z,75.18
2022-12-05T15:23:30.358Z,74.60
2022-12-05T15:29:06.784Z,74.81
2022-12-05T15:34:36.755Z,74.76
2022-12-05T15:40:02.136Z,75.13
2022-12-05T15:45:27.127Z,75.62
2022-12-05T15:50:51.293Z,75.32
2022-12-05T15:56:23.829Z,75.98
2022-12-05T16:01:47.333Z,76.02
2022-12-05T16:07:09.817Z,75.68
2022-12-05T16:12:35.771Z,76.68
2022-12-05T16:17:57.547Z,76.60
2022-12-05T16:23:23.568Z,76.14
2022-12-05T16:28:56.187Z,76.24
2022-12-05T16:34:17.127Z,75.24
2022-12-05T16:39:37.736Z,75.13
2022-12-05T16:45:03.467Z,75.90
2022-12-05T16:50:35.075Z,76.16
2022-12-05T16:55:56.026Z,75.46
2022-12-05T17:01:18.304Z,75.63
2022-12-05T17:06:39.474Z,76.09
2022-12-05T17:12:02.941Z,76.05
2022-12-05T17:17:23.679Z,76.47
2022-12-05T17:22:44.300Z,76.28
2022-12-05T17:28:05.152Z,76.26
2022-12-05T17:33:25.738Z,76.30
2022-12-05T17:38:46.355Z,76.47
2022-12-05T17:44:07.965Z,75.94
2022-12-05T17:49:28.936Z,76.17
2022-12-05T17:54:49.857Z,77.95
2022-12-05T18:00:10.892Z,76.44
2022-12-05T18:05:31.669Z,76.56
2022-12-05T18:10:52.652Z,75.92
2022-12-05T18:16:13.757Z,75.98
2022-12-05T18:21:34.329Z,75.65
2022-12-05T18:26:56.172Z,75.86
2022-12-05T18:32:17.873Z,80.86
2022-12-05T18:37:39.534Z,76.57
2022-12-05T18:43:00.323Z,75.60
2022-12-05T18:48:38.720Z,75.83
2022-12-05T18:54:01.358Z,75.87
2022-12-05T18:59:22.467Z,76.06
2022-12-05T19:04:43.205Z,76.24
2022-12-05T19:10:04.255Z,76.60
2022-12-05T19:15:25.166Z,76.11
2022-12-05T19:20:49.685Z,76.43
2022-12-05T19:26:11.030Z,77.32
2022-12-05T19:31:32.129Z,76.82
2022-12-05T19:36:53.087Z,77.46
2022-12-05T19:42:13.617Z,76.61
2022-12-05T19:47:34.723Z,76.84
2022-12-05T19:52:55.615Z,76.42
2022-12-05T19:58:16.654Z,76.57
2022-12-05T20:03:39.056Z,76.64
2022-12-05T20:08:59.978Z,76.18
2022-12-05T20:14:22.097Z,77.87
2022-12-05T20:19:42.982Z,76.73
2022-12-05T20:25:04.230Z,76.59
2022-12-05T20:30:24.885Z,76.77
2022-12-05T20:35:45.785Z,77.01
2022-12-05T20:41:17.110Z,76.57
2022-12-05T20:46:38.097Z,76.17
2022-12-05T20:51:58.641Z,76.73
2022-12-05T20:57:20.193Z,76.73
2022-12-05T21:02:40.886Z,76.43
2022-12-05T21:08:01.752Z,76.48
2022-12-05T21:13:22.348Z,76.01
2022-12-05T21:18:43.465Z,76.32
2022-12-05T21:24:04.853Z,76.39
2022-12-05T21:29:25.584Z,76.85
2022-12-05T21:34:46.567Z,76.58
2022-12-05T21:40:08.105Z,76.17
2022-12-05T21:45:28.675Z,76.91
2022-12-05T21:50:49.687Z,76.47
2022-12-05T21:56:17.400Z,76.24
2022-12-05T22:01:38.564Z,76.01
2022-12-05T22:06:59.272Z,76.42
2022-12-05T22:12:20.213Z,76.68
2022-12-05T22:17:40.992Z,76.48
2022-12-05T22:23:01.400Z,76.76
2022-12-05T22:28:24.050Z,75.84
2022-12-05T22:33:45.196Z,76.67
2022-12-05T22:39:05.852Z,76.12
2022-12-05T22:44:26.551Z,76.11
2022-12-05T22:49:47.187Z,76.39
2022-12-05T22:55:08.337Z,76.56
2022-12-05T23:00:29.010Z,76.16
2022-12-05T23:05:50.010Z,76.68
2022-12-05T23:11:11.587Z,76.71
2022-12-05T23:16:32.823Z,76.17
2022-12-05T23:21:53.484Z,76.72
2022-12-05T23:27:16.206Z,76.04
2022-12-05T23:32:36.646Z,76.53
2022-12-05T23:37:57.501Z,76.66
2022-12-05T23:43:18.350Z,76.45
2022-12-05T23:48:39.741Z,76.23
2022-12-05T23:54:01.672Z,76.73
2022-12-05T23:59:22.389Z,76.88
